Time;durP1;ratioP1;P1;durP2;ratioP2;P2;SDS_P1;SDS_P2;PMS_P1;PMS_P2;Temp;Humidity;BMP_temperature;BMP_pressure;BME280_temperature;BME280_humidity;BME280_pressure;Samples;Min_cycle;Max_cycle;Signal;HPM_P1;HPM_P2
2023/02/09 00:01:59;;;;;;;65.60;23.70;;;;;;;-11.84;100.00;103650.83;104255;1279;60395;-76
2023/02/09 00:04:25;;;;;;;63.60;21.20;;;;;;;-11.92;100.00;103644.62;103496;1288;60511;-76
2023/02/09 00:06:51;;;;;;;62.00;20.60;;;;;;;-11.98;100.00;103642.35;104208;1280;72756;-76
2023/02/09 00:09:16;;;;;;;58.80;20.60;;;;;;;-12.03;100.00;103635.89;103769;1285;60469;-76
2023/02/09 00:14:26;;;;;;;59.30;20.50;;;;;;;-12.11;100.00;103629.50;104026;1284;74411;-78
2023/02/09 00:16:52;;;;;;;66.50;21.30;;;;;;;-12.18;100.00;103627.23;104085;1280;60398;-78
2023/02/09 00:19:19;;;;;;;70.80;22.10;;;;;;;-12.24;100.00;103628.61;104076;1280;60452;-75
2023/02/09 00:21:46;;;;;;;57.30;20.50;;;;;;;-12.30;100.00;103623.89;104152;1282;60395;-77
2023/02/09 00:24:13;;;;;;;61.10;20.00;;;;;;;-12.35;100.00;103618.81;103736;1280;62096;-77
2023/02/09 00:26:40;;;;;;;65.20;21.60;;;;;;;-12.37;100.00;103621.80;104027;1280;74068;-77
2023/02/09 00:29:06;;;;;;;64.60;22.30;;;;;;;-12.38;100.00;103619.05;104171;1281;60360;-78
2023/02/09 00:31:32;;;;;;;71.00;23.50;;;;;;;-12.38;100.00;103615.77;104293;1282;60288;-77
2023/02/09 00:33:58;;;;;;;67.50;22.70;;;;;;;-12.41;100.00;103617.56;104265;1282;60402;-77
2023/02/09 00:36:24;;;;;;;61.40;20.30;;;;;;;-12.45;100.00;103614.56;103836;1280;60389;-77
2023/02/09 00:38:49;;;;;;;67.40;21.20;;;;;;;-12.50;100.00;103613.45;104396;1282;60389;-77
2023/02/09 00:41:15;;;;;;;61.60;21.10;;;;;;;-12.55;100.00;103611.83;104274;1282;60424;-77
2023/02/09 00:43:41;;;;;;;63.00;18.60;;;;;;;-12.62;100.00;103609.91;103735;1287;64150;-77
2023/02/09 00:46:08;;;;;;;60.70;19.90;;;;;;;-12.68;100.00;103611.25;104004;1281;60397;-77
2023/02/09 00:48:34;;;;;;;47.60;17.70;;;;;;;-12.73;100.00;103612.59;103736;1283;60331;-77
2023/02/09 00:51:00;;;;;;;53.20;18.90;;;;;;;-12.79;100.00;103609.08;104197;1282;60245;-77
2023/02/09 00:53:26;;;;;;;61.40;20.30;;;;;;;-12.85;100.00;103610.07;104296;1280;60405;-77
2023/02/09 00:55:52;;;;;;;55.80;19.60;;;;;;;-12.91;100.00;103602.95;104318;1280;60365;-77
2023/02/09 00:58:18;;;;;;;58.40;20.10;;;;;;;-12.96;100.00;103605.48;103804;1280;60538;-77
2023/02/09 01:00:44;;;;;;;59.20;20.10;;;;;;;-13.02;100.00;103608.88;104140;1285;60379;-77
2023/02/09 01:03:10;;;;;;;56.50;18.90;;;;;;;-13.06;100.00;103612.75;104246;1292;60421;-77
2023/02/09 01:05:40;;;;;;;53.00;19.80;;;;;;;-13.12;100.00;103618.27;104332;1282;62578;-77
2023/02/09 01:08:06;;;;;;;54.80;17.60;;;;;;;-13.19;100.00;103611.48;104157;1282;61532;-78
2023/02/09 01:10:32;;;;;;;63.00;18.70;;;;;;;-13.20;100.00;103613.40;104154;1280;60469;-77
2023/02/09 01:12:57;;;;;;;53.00;17.90;;;;;;;-13.22;100.00;103606.70;103851;1285;61577;-77
2023/02/09 01:15:23;;;;;;;54.90;19.50;;;;;;;-13.25;100.00;103607.29;104198;1279;60421;-77
2023/02/09 01:17:48;;;;;;;54.40;18.50;;;;;;;-13.28;100.00;103607.72;104112;1280;60790;-77
2023/02/09 01:20:15;;;;;;;52.70;18.10;;;;;;;-13.32;100.00;103601.04;104035;1280;74392;-77
2023/02/09 01:22:40;;;;;;;56.40;19.10;;;;;;;-13.34;100.00;103597.63;104057;1282;60382;-77
2023/02/09 01:25:07;;;;;;;54.70;18.30;;;;;;;-13.38;100.00;103594.60;104196;1282;60520;-78
2023/02/09 01:27:33;;;;;;;56.90;18.00;;;;;;;-13.44;100.00;103597.31;104177;1282;60379;-77
2023/02/09 01:33:18;;;;;;;53.50;18.70;;;;;;;-13.51;100.00;103592.42;103275;1285;601171;-75
2023/02/09 01:35:44;;;;;;;56.60;18.40;;;;;;;-13.56;100.00;103596.34;103389;1286;60367;-78
2023/02/09 01:38:09;;;;;;;58.60;18.40;;;;;;;-13.60;100.00;103594.16;103478;1291;60413;-78
2023/02/09 01:40:35;;;;;;;58.50;17.60;;;;;;;-13.65;100.00;103596.34;103681;1285;60413;-78
2023/02/09 01:43:00;;;;;;;55.30;19.10;;;;;;;-13.66;100.00;103587.54;103351;1290;74286;-76
2023/02/09 01:45:39;;;;;;;50.40;18.60;;;;;;;-13.66;100.00;103581.65;103386;1291;60403;-78
2023/02/09 01:48:05;;;;;;;55.90;18.20;;;;;;;-13.71;100.00;103583.13;103346;1284;187649;-78
2023/02/09 01:50:38;;;;;;;56.10;17.70;;;;;;;-13.77;100.00;103584.80;103618;1288;60441;-78
2023/02/09 01:53:05;;;;;;;60.10;18.70;;;;;;;-13.80;100.00;103586.23;103678;1287;75435;-78
2023/02/09 01:55:39;;;;;;;59.90;18.90;;;;;;;-13.83;100.00;103587.66;103501;1287;73661;-77
2023/02/09 01:58:25;;;;;;;49.60;17.50;;;;;;;-13.86;100.00;103593.23;103519;1285;63871;-78
2023/02/09 02:00:51;;;;;;;63.00;19.80;;;;;;;-13.90;100.00;103590.56;103664;1288;61230;-77
2023/02/09 02:03:21;;;;;;;53.80;18.20;;;;;;;-13.95;100.00;103592.02;103132;1287;60386;-77
2023/02/09 02:05:52;;;;;;;60.10;19.50;;;;;;;-13.99;100.00;103595.20;103523;1286;74844;-78
2023/02/09 02:08:26;;;;;;;52.40;17.80;;;;;;;-14.02;100.00;103599.56;103474;1287;73949;-77
2023/02/09 02:10:54;;;;;;;55.10;19.30;;;;;;;-14.08;100.00;103599.65;103403;1287;63170;-77
2023/02/09 02:13:19;;;;;;;51.90;18.30;;;;;;;-14.13;100.00;103597.86;103209;1285;60856;-77
2023/02/09 02:15:48;;;;;;;60.50;18.50;;;;;;;-14.16;100.00;103598.09;103452;1286;60389;-77
2023/02/09 02:18:44;;;;;;;58.40;19.20;;;;;;;-14.20;100.00;103599.52;103499;1288;74656;-77
2023/02/09 02:21:18;;;;;;;64.10;20.10;;;;;;;-14.26;100.00;103596.68;103513;1297;73325;-77
2023/02/09 02:23:56;;;;;;;58.10;16.70;;;;;;;-14.31;100.00;103593.48;103512;1287;64165;-77
2023/02/09 02:26:25;;;;;;;61.40;19.30;;;;;;;-14.35;100.00;103588.73;103607;1287;61730;-77
2023/02/09 02:29:23;;;;;;;57.20;18.30;;;;;;;-14.38;100.00;103586.71;103581;1288;73495;-77
2023/02/09 02:32:04;;;;;;;55.00;17.60;;;;;;;-14.43;100.00;103591.25;103527;1286;74676;-77
2023/02/09 02:34:44;;;;;;;53.80;17.90;;;;;;;-14.50;100.00;103596.73;103599;1288;73733;-77
2023/02/09 02:37:55;;;;;;;58.50;18.00;;;;;;;-14.53;100.00;103599.73;103585;1285;63171;-77
2023/02/09 02:40:39;;;;;;;56.20;18.80;;;;;;;-14.56;100.00;103591.13;103316;1291;60719;-78
2023/02/09 02:43:25;;;;;;;67.30;19.70;;;;;;;-14.58;100.00;103586.34;103174;1294;73423;-78
2023/02/09 02:46:08;;;;;;;66.10;19.80;;;;;;;-14.60;100.00;103589.31;102559;1299;74456;-77
2023/02/09 02:48:56;;;;;;;58.90;19.50;;;;;;;-14.61;100.00;103591.74;102474;1311;75463;-77
2023/02/09 02:51:30;;;;;;;56.80;18.10;;;;;;;-14.62;100.00;103596.23;102654;1299;64184;-77
2023/02/09 02:53:58;;;;;;;51.10;19.10;;;;;;;-14.68;100.00;103594.59;102468;1297;60611;-78
2023/02/09 02:56:29;;;;;;;63.20;20.10;;;;;;;-14.72;100.00;103597.58;102485;1299;74371;-77
2023/02/09 02:58:58;;;;;;;61.50;19.60;;;;;;;-14.78;100.00;103595.42;102522;1299;74845;-77
2023/02/09 03:04:51;;;;;;;64.60;20.10;;;;;;;-14.82;100.00;103588.77;102439;1300;63948;-77
2023/02/09 03:07:17;;;;;;;77.20;21.90;;;;;;;-14.80;100.00;103592.34;102431;1300;60579;-77
2023/02/09 03:09:51;;;;;;;64.90;22.20;;;;;;;-14.78;100.00;103589.91;102521;1296;60466;-77
2023/02/09 03:12:47;;;;;;;65.10;20.50;;;;;;;-14.78;100.00;103592.83;102552;1296;74786;-77
2023/02/09 03:15:39;;;;;;;66.00;20.60;;;;;;;-14.82;100.00;103596.52;102418;1297;73158;-77
2023/02/09 03:18:21;;;;;;;71.70;21.30;;;;;;;-14.84;100.00;103596.55;102793;1292;64145;-77
2023/02/09 03:21:03;;;;;;;64.40;21.80;;;;;;;-14.83;100.00;103591.87;102884;1296;61657;-77
2023/02/09 03:23:28;;;;;;;65.00;18.40;;;;;;;-14.85;100.00;103593.11;103253;1288;74115;-77
2023/02/09 03:25:56;;;;;;;68.00;21.50;;;;;;;-14.87;100.00;103590.38;103425;1288;60341;-77
2023/02/09 03:28:27;;;;;;;69.70;22.00;;;;;;;-14.90;100.00;103584.73;103210;1290;60567;-77
2023/02/09 03:30:54;;;;;;;75.30;21.90;;;;;;;-14.93;100.00;103583.73;103609;1285;64190;-77
2023/02/09 03:33:25;;;;;;;70.30;22.00;;;;;;;-14.94;100.00;103586.34;103426;1287;60678;-77
2023/02/09 03:35:54;;;;;;;73.30;21.50;;;;;;;-14.97;100.00;103588.61;103561;1288;74442;-77
2023/02/09 03:38:21;;;;;;;68.70;21.60;;;;;;;-14.95;100.00;103589.80;103259;1291;74756;-77
2023/02/09 03:40:46;;;;;;;62.70;21.90;;;;;;;-14.94;100.00;103593.58;103457;1285;60354;-77
2023/02/09 03:43:12;;;;;;;74.50;21.90;;;;;;;-14.93;100.00;103589.61;103469;1297;60450;-77
2023/02/09 03:45:38;;;;;;;70.70;22.20;;;;;;;-14.92;100.00;103583.20;103568;1287;60390;-77
2023/02/09 03:48:04;;;;;;;80.10;22.80;;;;;;;-14.94;100.00;103581.85;103221;1293;60585;-77
2023/02/09 03:50:31;;;;;;;72.20;23.10;;;;;;;-14.95;100.00;103572.55;103482;1285;60317;-76
2023/02/09 03:52:58;;;;;;;71.00;22.40;;;;;;;-14.96;100.00;103574.64;103458;1288;60333;-78
2023/02/09 03:55:24;;;;;;;70.90;24.00;;;;;;;-14.97;100.00;103570.16;103591;1288;60397;-77
2023/02/09 03:57:50;;;;;;;72.20;22.50;;;;;;;-14.97;100.00;103570.66;103443;1291;60423;-77
2023/02/09 04:00:16;;;;;;;70.40;23.10;;;;;;;-14.99;100.00;103569.00;103558;1283;60394;-77
2023/02/09 04:02:42;;;;;;;78.60;22.60;;;;;;;-15.01;100.00;103567.97;103501;1287;73837;-77
2023/02/09 04:05:09;;;;;;;76.60;21.30;;;;;;;-15.00;100.00;103571.41;103524;1285;63936;-77
2023/02/09 04:07:34;;;;;;;65.40;22.50;;;;;;;-15.02;100.00;103568.34;103501;1285;60393;-77
2023/02/09 04:10:00;;;;;;;79.60;24.20;;;;;;;-15.01;100.00;103571.77;103511;1289;60437;-77
2023/02/09 04:12:25;;;;;;;75.30;23.20;;;;;;;-15.02;100.00;103573.16;103536;1288;60378;-77
2023/02/09 04:14:51;;;;;;;70.50;22.60;;;;;;;-15.02;100.00;103574.04;103682;1287;60400;-77
2023/02/09 04:17:16;;;;;;;65.00;21.80;;;;;;;-15.04;100.00;103573.36;103501;1298;60214;-77
2023/02/09 04:19:42;;;;;;;64.60;19.70;;;;;;;-15.08;100.00;103569.81;103614;1285;60382;-77
2023/02/09 04:22:07;;;;;;;69.80;22.30;;;;;;;-15.14;100.00;103575.21;103270;1288;60873;-77
2023/02/09 04:27:55;;;;;;;74.90;22.30;;;;;;;-15.16;100.00;103573.34;103606;1284;64213;-77
2023/02/09 04:33:44;;;;;;;69.20;21.60;;;;;;;-15.15;100.00;103575.23;102888;1289;600558;-77
2023/02/09 04:36:14;;;;;;;73.80;22.30;;;;;;;-15.16;100.00;103576.98;102886;1296;60485;-76
2023/02/09 04:38:39;;;;;;;82.40;21.90;;;;;;;-15.18;100.00;103577.52;103072;1295;61475;-77
2023/02/09 04:41:05;;;;;;;79.50;22.40;;;;;;;-15.18;100.00;103577.85;103212;1290;60498;-78
2023/02/09 04:43:32;;;;;;;76.30;23.80;;;;;;;-15.17;100.00;103578.54;103095;1295;60454;-77
2023/02/09 04:45:58;;;;;;;73.10;22.40;;;;;;;-15.19;100.00;103580.62;103266;1289;60277;-77
2023/02/09 04:48:25;;;;;;;70.40;23.00;;;;;;;-15.19;100.00;103579.25;102941;1295;182800;-76
2023/02/09 04:50:51;;;;;;;68.50;21.00;;;;;;;-15.19;100.00;103581.67;103106;1292;60561;-77
2023/02/09 04:53:18;;;;;;;64.40;21.10;;;;;;;-15.23;100.00;103584.46;103281;1292;60456;-77
2023/02/09 04:55:45;;;;;;;70.10;23.10;;;;;;;-15.25;100.00;103589.67;103347;1291;60623;-77
2023/02/09 05:00:57;;;;;;;82.20;22.00;;;;;;;-15.28;100.00;103592.98;103387;1285;64187;-77
2023/02/09 05:03:26;;;;;;;76.80;23.60;;;;;;;-15.27;100.00;103591.06;103359;1292;60424;-76
2023/02/09 05:05:56;;;;;;;85.50;21.90;;;;;;;-15.22;100.00;103588.77;103403;1294;73122;-76
2023/02/09 05:08:22;;;;;;;75.60;22.40;;;;;;;-15.16;100.00;103590.07;103307;1286;74838;-77
2023/02/09 05:14:10;;;;;;;56.30;16.90;;;;;;;-15.02;100.00;103596.61;103434;1287;63052;-77
2023/02/09 05:16:36;;;;;;;70.90;22.00;;;;;;;-14.98;100.00;103593.80;103368;1287;60412;-77
2023/02/09 05:19:01;;;;;;;71.00;22.10;;;;;;;-14.92;100.00;103596.48;103308;1291;61960;-77
2023/02/09 05:21:27;;;;;;;69.10;23.60;;;;;;;-14.84;100.00;103597.92;103256;1292;60280;-77
2023/02/09 05:23:52;;;;;;;73.60;22.60;;;;;;;-14.75;100.00;103598.48;103069;1286;60410;-77
2023/02/09 05:26:18;;;;;;;69.50;23.10;;;;;;;-14.64;100.00;103597.65;103294;1286;60397;-77
2023/02/09 05:28:43;;;;;;;65.80;21.90;;;;;;;-14.53;100.00;103597.98;103217;1286;60418;-77
2023/02/09 05:31:09;;;;;;;67.40;22.30;;;;;;;-14.43;100.00;103594.20;103191;1291;60831;-77
2023/02/09 05:33:34;;;;;;;69.30;22.90;;;;;;;-14.33;100.00;103590.77;102838;1292;60567;-77
2023/02/09 05:39:33;;;;;;;74.70;25.20;;;;;;;-13.86;100.00;103581.67;102842;1290;600267;-78
2023/02/09 05:42:14;;;;;;;71.70;25.20;;;;;;;-13.58;100.00;103580.46;102958;1290;60858;-78
2023/02/09 05:44:46;;;;;;;82.30;26.50;;;;;;;-13.19;100.00;103584.16;102971;1294;60532;-78
2023/02/09 05:47:14;;;;;;;111.20;36.70;;;;;;;-12.86;100.00;103582.58;103058;1291;73306;-78
2023/02/09 05:49:39;;;;;;;136.10;39.50;;;;;;;-12.51;100.00;103581.95;102789;1292;74325;-78
2023/02/09 05:52:05;;;;;;;143.20;42.50;;;;;;;-12.18;100.00;103589.48;102701;1291;210018;-79
2023/02/09 05:54:31;;;;;;;145.90;43.70;;;;;;;-11.87;100.00;103587.29;103191;1294;60382;-78
2023/02/09 05:56:56;;;;;;;147.60;44.70;;;;;;;-11.49;100.00;103589.36;103163;1290;60473;-79
2023/02/09 05:59:22;;;;;;;111.50;32.80;;;;;;;-10.81;100.00;103585.16;103152;1288;60482;-78
2023/02/09 06:01:48;;;;;;;95.30;29.90;;;;;;;-9.91;100.00;103576.48;103327;1288;60389;-77
2023/02/09 06:04:14;;;;;;;93.30;29.00;;;;;;;-9.14;100.00;103580.86;103207;1288;63145;-76
2023/02/09 06:06:40;;;;;;;81.20;24.70;;;;;;;-8.01;100.00;103578.98;103137;1291;60421;-77
2023/02/09 06:09:06;;;;;;;79.40;24.80;;;;;;;-7.12;100.00;103578.23;103066;1286;60331;-76
2023/02/09 06:11:32;;;;;;;85.40;26.30;;;;;;;-6.37;100.00;103577.81;103235;1291;61171;-77
2023/02/09 06:13:57;;;;;;;74.90;24.60;;;;;;;-5.53;100.00;103577.20;103063;1291;60390;-77
2023/02/09 06:16:23;;;;;;;67.40;22.30;;;;;;;-4.58;100.00;103573.79;103123;1291;60284;-77
2023/02/09 06:18:49;;;;;;;62.20;22.40;;;;;;;-3.53;100.00;103579.23;102847;1286;73068;-77
2023/02/09 06:21:14;;;;;;;58.70;21.40;;;;;;;-2.53;100.00;103577.19;103072;1289;60481;-76
2023/02/09 06:23:40;;;;;;;47.20;19.10;;;;;;;-1.80;100.00;103572.16;102872;1288;60508;-77
2023/02/09 06:26:10;;;;;;;49.20;20.60;;;;;;;-0.81;96.65;103566.47;103248;1291;60354;-78
2023/02/09 06:28:37;;;;;;;53.10;22.00;;;;;;;0.31;86.75;103566.56;103398;1291;60592;-77
2023/02/09 06:31:04;;;;;;;50.80;21.50;;;;;;;1.41;80.92;103562.03;103603;1285;60299;-77
2023/02/09 06:33:30;;;;;;;48.20;21.40;;;;;;;2.37;74.62;103556.33;103501;1285;75751;-77
2023/02/09 06:35:56;;;;;;;46.30;20.70;;;;;;;3.04;67.46;103558.09;102979;1286;60418;-78
2023/02/09 06:38:22;;;;;;;53.00;25.10;;;;;;;3.77;64.68;103557.17;103508;1284;60399;-77
2023/02/09 06:40:48;;;;;;;53.90;24.90;;;;;;;4.53;62.50;103560.20;103504;1286;60373;-78
2023/02/09 06:43:19;;;;;;;55.30;25.80;;;;;;;5.08;56.56;103559.74;103624;1286;60354;-78
2023/02/09 06:45:45;;;;;;;52.60;25.70;;;;;;;5.67;55.07;103551.54;103610;1285;73642;-77
2023/02/09 06:48:19;;;;;;;50.50;26.90;;;;;;;6.22;53.94;103552.25;103547;1289;60421;-77
2023/02/09 06:50:45;;;;;;;59.00;27.10;;;;;;;6.71;50.12;103557.67;103646;1288;60334;-77
2023/02/09 06:53:11;;;;;;;49.90;25.40;;;;;;;7.46;50.26;103557.92;103783;1288;60424;-76
2023/02/09 06:55:37;;;;;;;55.40;24.80;;;;;;;8.07;45.49;103562.90;103967;1285;61200;-77
2023/02/09 06:58:03;;;;;;;49.80;24.40;;;;;;;8.49;44.91;103557.05;103367;1286;60596;-77
2023/02/09 07:00:30;;;;;;;49.00;24.80;;;;;;;8.82;43.40;103555.08;103274;1289;60213;-77
2023/02/09 07:02:58;;;;;;;52.30;25.80;;;;;;;9.34;42.33;103554.76;103712;1285;60437;-77
2023/02/09 07:05:40;;;;;;;49.20;25.80;;;;;;;9.83;41.97;103548.86;103147;1292;600937;-78
2023/02/09 07:08:06;;;;;;;44.20;25.60;;;;;;;10.38;41.90;103543.26;103165;1290;60410;-78
2023/02/09 07:14:03;;;;;;;46.50;25.00;;;;;;;11.89;37.72;103534.15;103505;1285;600731;-78
2023/02/09 07:16:29;;;;;;;50.60;25.10;;;;;;;12.07;37.21;103527.44;103244;1286;60288;-77
2023/02/09 07:18:55;;;;;;;44.20;25.40;;;;;;;12.58;37.30;103525.48;103266;1286;60419;-77
2023/02/09 07:21:21;;;;;;;44.30;24.90;;;;;;;13.08;36.03;103529.55;103406;1291;60303;-77
2023/02/09 07:23:47;;;;;;;46.70;26.00;;;;;;;13.36;34.97;103529.56;103348;1288;60353;-78
2023/02/09 07:26:16;;;;;;;51.00;26.70;;;;;;;13.92;34.19;103519.98;103328;1288;60339;-79
2023/02/09 07:28:42;;;;;;;44.60;24.70;;;;;;;14.22;33.92;103515.52;103327;1285;630399;-79
2023/02/09 07:31:10;;;;;;;46.10;26.30;;;;;;;14.35;34.27;103522.41;103857;1287;60422;-78
2023/02/09 07:33:36;;;;;;;42.70;25.50;;;;;;;14.64;33.03;103525.85;103765;1285;74938;-78
2023/02/09 07:36:08;;;;;;;51.60;27.60;;;;;;;15.04;33.59;103525.23;103914;1284;60399;-78
2023/02/09 07:38:35;;;;;;;52.10;28.60;;;;;;;15.84;34.47;103530.25;103821;1285;61613;-78
2023/02/09 07:41:02;;;;;;;59.80;28.20;;;;;;;16.19;31.51;103525.46;103839;1287;60414;-78
2023/02/09 07:43:28;;;;;;;53.60;29.40;;;;;;;16.30;31.72;103526.27;103849;1285;73590;-79
2023/02/09 07:46:05;;;;;;;53.80;28.90;;;;;;;16.52;30.25;103525.85;103700;1287;60395;-79
2023/02/09 07:48:32;;;;;;;53.00;30.00;;;;;;;16.58;30.19;103530.42;103172;1290;73391;-79
2023/02/09 07:50:59;;;;;;;53.90;28.50;;;;;;;17.45;32.99;103526.21;103579;1284;61645;-80
2023/02/09 07:53:25;;;;;;;52.70;30.20;;;;;;;18.67;31.61;103516.12;105017;1287;60288;-81
2023/02/09 07:55:51;;;;;;;53.10;29.30;;;;;;;19.06;30.58;103513.98;103252;1285;60510;-80
2023/02/09 07:58:18;;;;;;;51.90;29.40;;;;;;;19.69;30.62;103515.23;103302;1290;60416;-80
2023/02/09 08:01:07;;;;;;;53.50;30.10;;;;;;;20.40;29.29;103508.79;103182;1290;599582;-79
2023/02/09 08:03:37;;;;;;;51.70;29.30;;;;;;;20.00;28.02;103507.88;103183;1293;60793;-78
2023/02/09 08:06:26;;;;;;;54.30;28.10;;;;;;;19.59;27.75;103505.59;103323;1287;60575;-80
2023/02/09 08:08:51;;;;;;;50.60;27.30;;;;;;;19.87;29.02;103506.05;103172;1290;73627;-80
2023/02/09 08:11:25;;;;;;;48.30;28.10;;;;;;;20.30;28.70;103506.54;103299;1290;60850;-79
2023/02/09 08:13:53;;;;;;;45.70;27.00;;;;;;;20.44;27.27;103509.45;103214;1286;334994;-80
2023/02/09 08:16:24;;;;;;;47.80;29.20;;;;;;;20.44;27.17;103505.18;103890;1285;61699;-79
2023/02/09 08:18:57;;;;;;;53.50;30.30;;;;;;;20.29;25.88;103503.95;103256;1285;60349;-79
2023/02/09 08:21:23;;;;;;;51.00;28.40;;;;;;;20.30;26.52;103503.14;103641;1289;72207;-80
2023/02/09 08:23:53;;;;;;;56.00;29.90;;;;;;;20.22;26.35;103506.11;103915;1285;60259;-80
2023/02/09 08:26:19;;;;;;;50.80;28.00;;;;;;;20.59;26.89;103503.13;103759;1284;70641;-80
2023/02/09 08:28:45;;;;;;;49.20;29.20;;;;;;;20.49;25.61;103503.26;103864;1284;60355;-80
2023/02/09 08:31:18;;;;;;;53.30;30.20;;;;;;;20.61;26.60;103505.56;103267;1285;60412;-79
2023/02/09 08:33:46;;;;;;;47.10;27.50;;;;;;;21.13;26.37;103508.30;103710;1284;72744;-80
2023/02/09 08:36:13;;;;;;;31.30;19.40;;;;;;;20.89;25.06;103505.64;103737;1284;73273;-80
2023/02/09 08:38:39;;;;;;;28.90;19.00;;;;;;;20.47;24.08;103495.05;103508;1285;74171;-80
2023/02/09 08:41:06;;;;;;;32.90;19.80;;;;;;;19.16;24.27;103496.21;103709;1289;60398;-79
2023/02/09 08:43:32;;;;;;;34.80;19.40;;;;;;;19.08;25.40;103495.83;103277;1285;60430;-80
2023/02/09 08:46:10;;;;;;;38.50;23.60;;;;;;;18.72;24.85;103494.80;103565;1285;60368;-80
2023/02/09 08:48:39;;;;;;;44.50;24.50;;;;;;;18.37;24.04;103496.71;103587;1286;74808;-79
2023/02/09 08:51:06;;;;;;;54.90;28.30;;;;;;;17.14;24.10;103506.19;103779;1285;73966;-80
2023/02/09 08:53:32;;;;;;;50.80;25.90;;;;;;;14.90;26.16;103505.75;103579;1285;60925;-79
2023/02/09 08:55:58;;;;;;;60.90;29.30;;;;;;;12.97;27.20;103509.77;103743;1288;60358;-79
2023/02/09 08:58:28;;;;;;;68.90;29.90;;;;;;;11.00;28.68;103506.57;103453;1285;60399;-77
2023/02/09 09:00:58;;;;;;;66.60;28.40;;;;;;;9.21;30.05;103506.40;103032;1285;75822;-78
2023/02/09 09:03:28;;;;;;;61.20;25.70;;;;;;;7.65;31.74;103506.66;103172;1290;74940;-78
2023/02/09 09:06:02;;;;;;;58.70;25.60;;;;;;;6.51;33.48;103509.57;103215;1288;60687;-77
2023/02/09 09:08:29;;;;;;;45.60;19.70;;;;;;;5.61;35.00;103506.50;103466;1284;60527;-78
2023/02/09 09:10:55;;;;;;;43.10;18.00;;;;;;;4.52;36.55;103507.19;103446;1287;74326;-77
2023/02/09 09:13:23;;;;;;;41.20;16.90;;;;;;;3.63;37.32;103498.33;103355;1288;60374;-77
2023/02/09 09:15:49;;;;;;;42.10;16.80;;;;;;;2.99;39.13;103490.13;103351;1288;72033;-77
2023/02/09 09:18:15;;;;;;;38.60;15.00;;;;;;;2.35;39.79;103492.86;103353;1287;60321;-76
2023/02/09 09:20:41;;;;;;;34.50;14.10;;;;;;;1.76;41.63;103488.83;102903;1288;60586;-76
2023/02/09 09:23:08;;;;;;;43.40;15.60;;;;;;;1.46;42.52;103484.81;103325;1292;60428;-76
2023/02/09 09:25:33;;;;;;;35.40;14.60;;;;;;;1.03;42.93;103483.16;103485;1289;60405;-76
2023/02/09 09:27:59;;;;;;;30.80;14.00;;;;;;;0.63;42.90;103476.70;103511;1286;60429;-76
2023/02/09 09:30:25;;;;;;;32.90;14.30;;;;;;;0.26;42.94;103479.77;103305;1290;60440;-75
2023/02/09 09:32:50;;;;;;;35.90;13.80;;;;;;;-0.02;45.09;103474.16;103341;1288;60426;-75
2023/02/09 09:35:16;;;;;;;30.30;12.90;;;;;;;-0.15;45.62;103472.70;103201;1288;75169;-75
2023/02/09 09:37:41;;;;;;;31.90;13.30;;;;;;;-0.28;45.89;103469.11;103264;1288;59765;-75
2023/02/09 09:40:16;;;;;;;31.00;14.00;;;;;;;-0.52;46.01;103461.42;103318;1290;60437;-76
2023/02/09 09:42:47;;;;;;;34.50;14.40;;;;;;;-0.74;47.75;103455.98;103177;1285;60589;-76
2023/02/09 09:45:18;;;;;;;39.00;14.60;;;;;;;-0.83;47.78;103452.75;103128;1286;74161;-76
2023/02/09 09:47:44;;;;;;;33.80;13.50;;;;;;;-0.90;48.29;103452.56;103282;1286;74176;-75
2023/02/09 09:50:21;;;;;;;34.60;14.10;;;;;;;-1.02;47.60;103447.64;103278;1288;60352;-75
2023/02/09 09:53:15;;;;;;;31.60;13.70;;;;;;;-1.36;50.82;103451.51;103037;1286;61612;-75
2023/02/09 09:55:44;;;;;;;27.10;11.50;;;;;;;-1.56;51.49;103448.36;102622;1295;60563;-76
2023/02/09 09:58:17;;;;;;;28.10;10.70;;;;;;;-1.57;50.30;103450.05;102727;1295;74409;-75
2023/02/09 10:00:44;;;;;;;24.80;9.80;;;;;;;-1.68;50.51;103446.27;102907;1295;73824;-75
2023/02/09 10:03:17;;;;;;;21.50;9.60;;;;;;;-1.72;50.93;103449.69;102969;1291;73737;-75
2023/02/09 10:05:45;;;;;;;23.40;10.20;;;;;;;-1.68;51.76;103448.89;102758;1291;60387;-74
2023/02/09 10:08:22;;;;;;;28.50;11.10;;;;;;;-1.65;51.45;103439.16;102992;1291;60487;-75
2023/02/09 10:10:59;;;;;;;24.10;10.30;;;;;;;-1.67;51.51;103434.16;102874;1296;71920;-74
2023/02/09 10:13:31;;;;;;;28.60;11.60;;;;;;;-1.69;52.95;103426.54;103044;1292;74804;-74
2023/02/09 10:15:57;;;;;;;26.60;11.60;;;;;;;-1.69;53.13;103425.50;102877;1289;74016;-74
2023/02/09 10:18:24;;;;;;;25.40;11.40;;;;;;;-1.71;53.42;103423.34;102647;1293;60613;-74
2023/02/09 10:21:03;;;;;;;27.90;11.90;;;;;;;-1.80;53.41;103423.08;102778;1290;60529;-74
2023/02/09 10:23:42;;;;;;;27.30;12.00;;;;;;;-1.87;54.14;103415.66;102900;1292;74365;-74
2023/02/09 10:26:07;;;;;;;27.00;11.80;;;;;;;-1.92;55.10;103418.81;102985;1294;74891;-75
2023/02/09 10:28:48;;;;;;;25.90;11.30;;;;;;;-1.97;55.56;103415.46;103057;1294;60466;-74
2023/02/09 10:31:25;;;;;;;28.40;11.50;;;;;;;-2.04;56.19;103412.82;102819;1291;62092;-74
2023/02/09 10:33:57;;;;;;;30.60;12.80;;;;;;;-2.06;56.49;103408.89;103235;1286;60609;-74
2023/02/09 10:36:33;;;;;;;30.50;12.40;;;;;;;-1.97;56.67;103404.41;103417;1288;74215;-75
2023/02/09 10:39:11;;;;;;;34.10;12.20;;;;;;;-1.89;57.00;103403.27;103382;1290;73976;-75
2023/02/09 10:41:39;;;;;;;32.10;13.10;;;;;;;-1.90;56.58;103401.08;103349;1288;72584;-75
2023/02/09 10:44:13;;;;;;;33.50;12.90;;;;;;;-1.97;57.10;103398.23;103358;1289;60680;-76
2023/02/09 10:46:39;;;;;;;29.70;11.80;;;;;;;-2.08;59.39;103402.17;103531;1288;61533;-75
2023/02/09 10:49:26;;;;;;;34.40;12.90;;;;;;;-2.05;59.12;103402.52;103003;1290;60402;-76
2023/02/09 10:52:13;;;;;;;30.50;12.10;;;;;;;-2.01;61.34;103400.08;103091;1287;75118;-75
2023/02/09 10:54:45;;;;;;;32.60;12.60;;;;;;;-2.03;61.70;103400.61;103183;1288;74107;-75
2023/02/09 10:57:23;;;;;;;;;;;;;;;-2.02;60.85;103393.48;103406;1288;60635;-75
2023/02/09 10:59:55;;;;;;;26.20;10.80;;;;;;;-2.05;64.07;103381.31;103425;1286;61783;-75
2023/02/09 11:02:37;;;;;;;24.20;10.80;;;;;;;-2.12;61.55;103373.37;103357;1287;74132;-75
2023/02/09 11:05:25;;;;;;;23.70;10.70;;;;;;;-2.21;63.15;103372.27;103300;1287;74036;-75
2023/02/09 11:07:58;;;;;;;23.30;10.50;;;;;;;-2.21;64.09;103365.38;103291;1288;72185;-75
2023/02/09 11:10:27;;;;;;;24.70;10.30;;;;;;;-2.19;65.37;103362.27;103240;1299;61094;-75
2023/02/09 11:12:54;;;;;;;27.20;11.10;;;;;;;-2.15;66.05;103355.11;103049;1287;60519;-75
2023/02/09 11:18:41;;;;;;;25.90;11.50;;;;;;;-2.23;67.49;103350.73;102993;1294;600640;-75
2023/02/09 11:21:32;;;;;;;26.90;11.30;;;;;;;-2.25;67.02;103342.96;102557;1296;60902;-76
2023/02/09 11:24:22;;;;;;;29.70;11.90;;;;;;;-2.22;69.31;103343.95;103123;1291;61629;-76
2023/02/09 11:26:59;;;;;;;26.00;11.30;;;;;;;-2.28;71.97;103338.91;103054;1292;72295;-76
2023/02/09 11:29:42;;;;;;;27.60;12.10;;;;;;;-2.34;72.49;103335.14;102897;1295;74021;-76
2023/02/09 11:32:17;;;;;;;30.50;12.30;;;;;;;-2.40;73.09;103334.30;102912;1290;241102;-76
2023/02/09 11:34:58;;;;;;;30.90;12.40;;;;;;;-2.41;74.97;103329.98;103154;1290;60816;-76
2023/02/09 11:37:29;;;;;;;34.30;12.10;;;;;;;-2.41;78.71;103325.74;103073;1295;60388;-76
2023/02/09 11:40:19;;;;;;;30.90;13.40;;;;;;;-2.38;76.91;103325.33;103442;1286;73302;-76